Time;durP1;ratioP1;P1;durP2;ratioP2;P2;SDS_P1;SDS_P2;PMS_P1;PMS_P2;Temp;Humidity;BMP_temperature;BMP_pressure;BME280_temperature;BME280_humidity;BME280_pressure;Samples;Min_cycle;Max_cycle;Signal;HPM_P1;HPM_P2
2021/06/27 00:00:31;;;;;;;67.10;42.87;;;17.30;99.90;;;;;;5055684;28;20242;-81
2021/06/27 00:02:58;;;;;;;66.37;43.93;;;17.20;99.90;;;;;;5055295;28;20251;-81
2021/06/27 00:05:29;;;;;;;68.27;43.20;;;17.20;99.90;;;;;;5054954;28;20205;-81
2021/06/27 00:07:57;;;;;;;71.07;43.43;;;17.30;99.90;;;;;;5055599;28;20236;-81
2021/06/27 00:10:26;;;;;;;70.43;43.97;;;17.30;99.90;;;;;;5055045;28;20216;-81
2021/06/27 00:12:54;;;;;;;69.67;44.63;;;17.30;99.90;;;;;;5055210;28;20215;-81
2021/06/27 00:15:24;;;;;;;70.97;44.83;;;17.30;99.90;;;;;;5054964;28;20232;-82
2021/06/27 00:17:51;;;;;;;71.20;45.10;;;17.30;99.90;;;;;;5055354;28;20209;-81
2021/06/27 00:20:22;;;;;;;75.17;47.10;;;17.20;99.90;;;;;;5054908;28;20208;-81
2021/06/27 00:22:51;;;;;;;68.63;45.63;;;17.20;99.90;;;;;;5054948;28;20232;-82
2021/06/27 00:25:20;;;;;;;76.23;46.33;;;17.10;99.90;;;;;;5055201;28;20554;-81
2021/06/27 00:27:49;;;;;;;71.07;45.50;;;17.10;99.90;;;;;;5055231;28;20279;-81
2021/06/27 00:30:19;;;;;;;70.77;47.13;;;17.00;99.90;;;;;;5055006;28;20236;-79
2021/06/27 00:32:47;;;;;;;73.73;47.03;;;17.00;99.90;;;;;;5054733;28;20200;-80
2021/06/27 00:35:16;;;;;;;76.67;49.27;;;17.00;99.90;;;;;;5054321;28;20307;-81
2021/06/27 00:37:43;;;;;;;83.77;49.90;;;17.00;99.90;;;;;;5054964;28;20279;-80
2021/06/27 00:40:14;;;;;;;85.50;51.87;;;16.90;99.90;;;;;;5054604;28;20649;-81
2021/06/27 00:42:41;;;;;;;84.13;50.83;;;16.90;99.90;;;;;;5054121;28;20184;-81
2021/06/27 00:45:10;;;;;;;88.73;51.97;;;17.00;99.90;;;;;;5054901;28;20292;-80
2021/06/27 00:47:39;;;;;;;86.23;51.80;;;17.00;99.90;;;;;;5049144;28;20604;-80
2021/06/27 00:50:08;;;;;;;83.33;52.57;;;17.00;99.90;;;;;;5034692;28;21070;-80
2021/06/27 00:52:35;;;;;;;91.63;54.27;;;17.00;99.90;;;;;;5034772;28;20239;-81
2021/06/27 00:55:03;;;;;;;89.80;53.93;;;17.00;99.90;;;;;;5043497;28;20273;-80
2021/06/27 00:57:31;;;;;;;96.30;56.17;;;17.00;99.90;;;;;;5054121;28;20287;-82
2021/06/27 01:00:00;;;;;;;93.10;55.27;;;17.10;99.90;;;;;;5054364;28;20303;-80
2021/06/27 01:02:27;;;;;;;95.63;54.00;;;17.10;99.90;;;;;;5053949;28;20258;-79
2021/06/27 01:04:54;;;;;;;109.57;57.40;;;17.30;99.90;;;;;;5054592;28;20246;-79
2021/06/27 01:07:21;;;;;;;106.23;60.10;;;17.40;99.90;;;;;;5054237;28;20204;-81
2021/06/27 01:09:48;;;;;;;105.73;59.30;;;17.40;99.90;;;;;;5054029;28;20293;-81
2021/06/27 01:12:15;;;;;;;108.97;58.20;;;17.40;99.90;;;;;;5053937;28;20234;-81
2021/06/27 01:14:44;;;;;;;105.90;59.77;;;17.50;99.90;;;;;;5053998;28;20505;-80
2021/06/27 01:17:11;;;;;;;109.10;61.53;;;17.50;99.90;;;;;;5053818;28;20307;-82
2021/06/27 01:19:38;;;;;;;106.40;58.87;;;17.40;99.90;;;;;;5053473;28;20224;-80
2021/06/27 01:22:06;;;;;;;105.77;59.23;;;17.40;99.90;;;;;;5054199;28;20692;-80
2021/06/27 01:24:33;;;;;;;101.90;58.60;;;17.40;99.90;;;;;;5053736;28;20207;-79
2021/06/27 01:27:00;;;;;;;112.47;61.67;;;17.40;99.90;;;;;;5054094;28;20296;-82
2021/06/27 01:29:27;;;;;;;115.23;62.93;;;17.30;99.90;;;;;;5053761;28;20292;-82
2021/06/27 01:31:54;;;;;;;104.03;59.80;;;17.20;99.90;;;;;;5054182;28;20196;-81
2021/06/27 01:34:22;;;;;;;109.53;63.23;;;17.20;99.90;;;;;;5053238;28;20224;-79
2021/06/27 01:36:49;;;;;;;117.90;64.30;;;17.30;99.90;;;;;;5053625;28;20220;-79
2021/06/27 01:39:17;;;;;;;113.30;64.23;;;17.40;99.90;;;;;;5054148;28;20291;-79
2021/06/27 01:41:49;;;;;;;116.90;62.97;;;17.40;99.90;;;;;;5053448;28;20239;-81
2021/06/27 01:44:16;;;;;;;122.07;63.53;;;17.50;99.90;;;;;;5053427;28;20192;-81
2021/06/27 01:46:43;;;;;;;116.30;63.90;;;17.50;99.90;;;;;;5053759;28;20224;-81
2021/06/27 01:49:10;;;;;;;107.63;59.83;;;17.40;99.90;;;;;;5053575;28;20565;-82
2021/06/27 01:51:37;;;;;;;120.53;65.33;;;17.40;99.90;;;;;;5052627;28;20210;-80
2021/06/27 01:54:05;;;;;;;128.87;66.17;;;17.40;99.90;;;;;;5053477;28;20712;-80
2021/06/27 01:56:33;;;;;;;120.77;65.40;;;17.50;99.90;;;;;;5053266;28;20265;-82
2021/06/27 01:59:02;;;;;;;126.10;66.17;;;17.50;99.90;;;;;;5053081;28;20647;-80
2021/06/27 02:01:31;;;;;;;120.03;64.27;;;17.60;99.90;;;;;;5053076;28;20243;-79
2021/06/27 02:03:59;;;;;;;129.20;66.20;;;17.60;99.90;;;;;;5052867;28;20651;-82
2021/06/27 02:06:27;;;;;;;125.10;64.73;;;17.70;99.90;;;;;;5053196;28;20208;-81
2021/06/27 02:08:55;;;;;;;135.33;65.17;;;17.70;99.90;;;;;;5052646;28;20198;-81
2021/06/27 02:11:24;;;;;;;125.63;66.40;;;17.80;99.90;;;;;;5052966;28;20287;-81
2021/06/27 02:13:54;;;;;;;123.20;67.53;;;17.70;99.90;;;;;;5053183;28;20296;-80
2021/06/27 02:16:21;;;;;;;121.20;64.60;;;17.60;99.90;;;;;;5052883;28;20307;-82
2021/06/27 02:18:51;;;;;;;126.73;66.97;;;17.50;99.90;;;;;;5053235;28;20207;-80
2021/06/27 02:21:23;;;;;;;128.60;67.73;;;17.40;99.90;;;;;;5053187;28;20196;-82
2021/06/27 02:23:51;;;;;;;122.30;66.20;;;17.50;99.90;;;;;;5052899;28;20299;-80
2021/06/27 02:26:19;;;;;;;134.07;70.97;;;17.40;99.90;;;;;;5052931;28;20196;-79
2021/06/27 02:28:47;;;;;;;135.10;69.47;;;17.40;99.90;;;;;;5053024;28;20291;-80
2021/06/27 02:31:16;;;;;;;130.00;69.53;;;17.40;99.90;;;;;;5052993;28;20757;-80
2021/06/27 02:33:44;;;;;;;132.97;70.63;;;17.30;99.90;;;;;;5052969;28;20228;-80
2021/06/27 02:36:11;;;;;;;130.67;71.63;;;17.30;99.90;;;;;;5052243;28;20255;-80
2021/06/27 02:38:38;;;;;;;126.53;70.90;;;17.40;99.90;;;;;;5033383;28;20304;-82
2021/06/27 02:41:06;;;;;;;136.03;71.37;;;17.30;99.90;;;;;;5033093;28;20280;-80
2021/06/27 02:43:33;;;;;;;127.53;68.43;;;17.30;99.90;;;;;;5050787;28;20279;-82
2021/06/27 02:46:00;;;;;;;127.57;68.60;;;17.10;99.90;;;;;;5052567;28;20632;-80
2021/06/27 02:48:30;;;;;;;130.00;70.20;;;17.00;99.90;;;;;;5053184;28;20239;-82
2021/06/27 02:50:57;;;;;;;130.83;69.80;;;17.10;99.90;;;;;;5052593;28;20263;-81
2021/06/27 02:53:24;;;;;;;127.30;67.50;;;17.10;99.90;;;;;;5052638;28;20288;-80
2021/06/27 02:56:06;;;;;;;120.10;67.00;;;17.20;99.90;;;;;;5052571;28;20251;-80
2021/06/27 02:58:34;;;;;;;120.47;63.37;;;17.10;99.90;;;;;;5052915;28;20204;-80
2021/06/27 03:01:01;;;;;;;113.53;61.87;;;17.00;99.90;;;;;;5051399;28;20200;-81
2021/06/27 03:03:29;;;;;;;115.00;62.20;;;17.00;99.90;;;;;;5053950;28;20236;-81
2021/06/27 03:05:56;;;;;;;116.37;64.30;;;17.10;99.90;;;;;;5056602;28;20290;-80
2021/06/27 03:08:23;;;;;;;116.93;63.20;;;17.10;99.90;;;;;;5056563;28;20196;-80
2021/06/27 03:10:50;;;;;;;114.63;65.20;;;17.10;99.90;;;;;;5037715;28;20300;-80
2021/06/27 03:13:17;;;;;;;120.27;65.50;;;17.10;99.90;;;;;;5036242;28;20287;-80
2021/06/27 03:15:44;;;;;;;120.87;67.30;;;17.00;99.90;;;;;;5046272;28;20254;-79
2021/06/27 03:18:11;;;;;;;122.20;67.53;;;17.00;99.90;;;;;;5056146;28;20638;-80
2021/06/27 03:20:40;;;;;;;127.37;66.77;;;17.10;99.90;;;;;;5056438;28;20238;-82
2021/06/27 03:23:07;;;;;;;120.60;66.67;;;17.20;99.90;;;;;;5056417;28;20295;-80
2021/06/27 03:25:35;;;;;;;114.53;65.00;;;17.10;99.90;;;;;;5055881;28;20627;-81
2021/06/27 03:28:02;;;;;;;113.03;61.03;;;17.10;99.90;;;;;;5056066;28;20201;-83
2021/06/27 03:30:28;;;;;;;119.57;63.53;;;17.20;99.90;;;;;;5055895;28;20200;-82
2021/06/27 03:32:55;;;;;;;118.37;63.30;;;17.40;99.90;;;;;;5055933;28;20639;-79
2021/06/27 03:35:22;;;;;;;109.77;63.13;;;17.60;99.90;;;;;;5055738;28;20304;-80
2021/06/27 03:37:56;;;;;;;114.37;63.17;;;17.60;99.90;;;;;;5055693;28;20645;-83
2021/06/27 03:40:23;;;;;;;122.93;65.00;;;17.60;99.90;;;;;;5055784;28;20772;-80
2021/06/27 03:42:50;;;;;;;109.53;61.67;;;17.50;99.90;;;;;;5055924;28;20665;-80
2021/06/27 03:45:18;;;;;;;111.67;64.80;;;17.60;99.90;;;;;;5056047;28;20208;-82
2021/06/27 03:47:45;;;;;;;114.70;63.57;;;17.60;99.90;;;;;;5055497;28;20667;-79
2021/06/27 03:50:12;;;;;;;111.07;61.50;;;17.50;99.90;;;;;;5055847;28;20562;-81
2021/06/27 03:52:40;;;;;;;105.33;60.23;;;17.30;99.90;;;;;;5055363;28;20639;-79
2021/06/27 03:55:10;;;;;;;104.57;60.10;;;17.10;99.90;;;;;;5055563;28;20302;-80
2021/06/27 03:57:37;;;;;;;103.20;58.50;;;17.10;99.90;;;;;;5055433;28;20287;-83
2021/06/27 04:00:08;;;;;;;105.53;58.30;;;17.20;99.90;;;;;;5055337;28;20689;-81
2021/06/27 04:02:34;;;;;;;108.63;60.63;;;17.00;99.90;;;;;;5055176;28;20302;-80
2021/06/27 04:05:03;;;;;;;102.63;59.23;;;16.90;99.90;;;;;;5055305;28;20204;-80
2021/06/27 04:07:30;;;;;;;106.17;62.17;;;16.80;99.90;;;;;;5055389;28;20215;-81
2021/06/27 04:09:58;;;;;;;111.60;60.53;;;16.70;99.90;;;;;;5055386;28;20188;-79
2021/06/27 04:12:26;;;;;;;110.90;60.97;;;16.70;99.90;;;;;;5055598;28;20231;-79
2021/06/27 04:14:53;;;;;;;111.20;61.73;;;16.60;99.90;;;;;;5054946;28;20215;-80
2021/06/27 04:17:22;;;;;;;111.00;61.30;;;16.50;99.90;;;;;;5055461;28;20295;-82
2021/06/27 04:19:49;;;;;;;110.43;60.33;;;16.50;99.90;;;;;;5055381;28;20195;-79
2021/06/27 04:22:16;;;;;;;110.53;60.70;;;16.60;99.90;;;;;;5055410;28;20204;-81
2021/06/27 04:24:43;;;;;;;104.90;61.13;;;16.70;99.90;;;;;;5055198;28;20236;-82
2021/06/27 04:27:10;;;;;;;107.13;60.30;;;16.60;99.90;;;;;;5055526;28;20196;-79
2021/06/27 04:29:39;;;;;;;105.63;57.93;;;16.50;99.90;;;;;;5055017;28;20299;-80
2021/06/27 04:32:06;;;;;;;100.23;58.10;;;16.40;99.90;;;;;;5054795;28;20231;-81
2021/06/27 04:34:33;;;;;;;103.60;58.97;;;16.40;99.90;;;;;;5055421;28;20207;-80
2021/06/27 04:37:00;;;;;;;102.30;60.07;;;16.50;99.90;;;;;;5055128;28;20251;-80
2021/06/27 04:39:27;;;;;;;102.10;59.13;;;16.60;99.90;;;;;;5055450;28;20290;-80
2021/06/27 04:41:54;;;;;;;98.33;59.50;;;16.70;99.90;;;;;;5055117;28;20227;-79
2021/06/27 04:44:21;;;;;;;100.70;58.83;;;16.80;99.90;;;;;;5054955;28;20283;-80
2021/06/27 04:46:49;;;;;;;90.77;57.70;;;16.80;99.90;;;;;;5054477;28;20226;-81
2021/06/27 04:49:16;;;;;;;88.60;55.27;;;16.90;99.90;;;;;;5054767;28;20196;-79
2021/06/27 04:51:43;;;;;;;86.17;54.20;;;17.10;99.90;;;;;;5054776;28;20200;-82
2021/06/27 04:54:10;;;;;;;86.57;52.03;;;17.30;99.90;;;;;;5035141;28;20208;-79
2021/06/27 04:56:37;;;;;;;75.13;48.93;;;17.50;99.90;;;;;;5039225;28;20303;-79
2021/06/27 04:59:04;;;;;;;73.97;49.03;;;17.90;99.90;;;;;;5056359;28;20196;-80
2021/06/27 05:01:31;;;;;;;72.03;47.57;;;18.50;99.90;;;;;;5056821;28;20208;-81
2021/06/27 05:04:00;;;;;;;62.93;45.30;;;19.30;99.90;;;;;;5058109;28;20200;-81
2021/06/27 05:06:27;;;;;;;57.43;42.13;;;20.30;99.90;;;;;;5056703;28;20239;-79
2021/06/27 05:08:54;;;;;;;52.83;40.90;;;21.30;99.90;;;;;;5056826;28;20283;-81
2021/06/27 05:11:20;;;;;;;56.37;41.93;;;21.60;99.90;;;;;;5057027;28;20299;-81
2021/06/27 05:13:47;;;;;;;52.23;40.83;;;21.90;99.90;;;;;;5055729;28;20289;-81
2021/06/27 05:16:14;;;;;;;54.63;41.93;;;21.80;99.90;;;;;;5055064;28;20224;-78
2021/06/27 05:18:41;;;;;;;59.63;40.90;;;21.40;99.90;;;;;;5055197;28;20295;-81
2021/06/27 05:21:09;;;;;;;52.33;41.00;;;21.00;99.90;;;;;;5055335;28;20693;-80
2021/06/27 05:23:36;;;;;;;54.30;40.97;;;21.00;99.90;;;;;;5054326;28;20732;-79
2021/06/27 05:26:03;;;;;;;54.23;41.00;;;20.70;99.90;;;;;;5053398;28;20673;-80
2021/06/27 05:28:30;;;;;;;54.33;40.73;;;20.60;99.90;;;;;;5054290;28;20205;-81
2021/06/27 05:30:57;;;;;;;52.67;40.47;;;20.40;99.90;;;;;;5053803;28;20227;-80
2021/06/27 05:33:24;;;;;;;55.63;40.77;;;20.50;99.90;;;;;;5054472;28;20200;-81
2021/06/27 05:35:51;;;;;;;53.67;40.40;;;20.30;99.90;;;;;;5055079;28;20319;-81
2021/06/27 05:38:19;;;;;;;54.47;40.23;;;20.10;99.90;;;;;;5054040;28;20231;-79
2021/06/27 05:40:46;;;;;;;51.23;38.17;;;20.00;99.90;;;;;;5053593;28;20244;-80
2021/06/27 05:43:13;;;;;;;55.40;40.40;;;19.70;99.90;;;;;;5053924;28;20607;-80
2021/06/27 05:45:40;;;;;;;51.40;38.83;;;19.50;99.90;;;;;;5053775;28;20234;-79
2021/06/27 05:48:08;;;;;;;54.70;40.80;;;19.10;99.90;;;;;;5054311;28;20208;-80
2021/06/27 05:50:35;;;;;;;57.77;42.07;;;19.20;99.90;;;;;;5054303;28;20235;-79
2021/06/27 05:53:02;;;;;;;55.23;39.30;;;19.00;99.90;;;;;;5053926;28;20287;-79
2021/06/27 05:55:31;;;;;;;56.47;40.53;;;19.00;99.90;;;;;;5053482;28;20753;-80
2021/06/27 05:57:58;;;;;;;59.13;40.63;;;19.00;99.90;;;;;;5053665;28;20634;-80
2021/06/27 06:00:25;;;;;;;51.60;38.93;;;19.00;99.90;;;;;;5050407;28;20714;-82
2021/06/27 06:02:51;;;;;;;55.03;40.80;;;18.90;99.90;;;;;;5045527;28;20287;-80
2021/06/27 06:05:18;;;;;;;54.13;39.97;;;19.00;99.90;;;;;;5050026;28;20238;-81
2021/06/27 06:07:46;;;;;;;59.97;42.00;;;18.90;99.90;;;;;;5054108;28;20287;-82
2021/06/27 06:10:13;;;;;;;53.17;39.87;;;19.00;99.90;;;;;;5053909;28;20692;-81
2021/06/27 06:12:41;;;;;;;50.03;37.53;;;19.10;99.90;;;;;;5053662;28;20295;-80
2021/06/27 06:15:10;;;;;;;57.20;40.30;;;19.20;99.90;;;;;;5053894;28;20200;-82
2021/06/27 06:17:36;;;;;;;56.10;38.97;;;19.20;99.90;;;;;;5052769;28;20260;-81
2021/06/27 06:20:05;;;;;;;56.67;39.97;;;19.20;99.90;;;;;;5053962;28;20374;-79
2021/06/27 06:22:32;;;;;;;53.10;38.37;;;19.20;99.90;;;;;;5053700;28;20667;-81
2021/06/27 06:24:58;;;;;;;56.20;38.90;;;19.20;99.90;;;;;;5053761;28;20227;-80
2021/06/27 06:27:25;;;;;;;54.93;39.13;;;19.40;99.90;;;;;;5053987;28;20234;-79
2021/06/27 06:29:54;;;;;;;51.47;36.97;;;19.60;99.90;;;;;;5052260;28;20222;-80
2021/06/27 06:32:21;;;;;;;49.57;37.73;;;19.70;99.90;;;;;;5053148;28;20200;-82
2021/06/27 06:34:48;;;;;;;52.20;37.37;;;19.90;99.90;;;;;;5052827;28;20262;-82
2021/06/27 06:37:15;;;;;;;52.70;37.67;;;19.90;99.90;;;;;;5052154;28;20251;-81
2021/06/27 06:39:43;;;;;;;49.60;38.23;;;19.90;99.90;;;;;;5052247;28;20207;-81
2021/06/27 06:42:11;;;;;;;52.77;38.73;;;20.00;99.90;;;;;;5049525;28;20204;-82
2021/06/27 06:44:38;;;;;;;48.83;37.27;;;20.30;99.90;;;;;;5052948;28;20561;-81
2021/06/27 06:47:06;;;;;;;51.70;37.57;;;20.30;99.90;;;;;;5053173;28;20200;-79
2021/06/27 06:49:33;;;;;;;45.47;35.57;;;20.10;99.90;;;;;;5052765;28;20235;-82
2021/06/27 06:52:00;;;;;;;48.83;34.87;;;19.80;99.90;;;;;;5052514;28;20283;-82
2021/06/27 06:54:27;;;;;;;46.00;35.50;;;19.90;99.90;;;;;;5052948;28;20304;-80
2021/06/27 06:56:54;;;;;;;46.43;35.40;;;20.20;99.90;;;;;;5051750;28;20254;-79
2021/06/27 06:59:21;;;;;;;46.80;34.07;;;20.30;99.90;;;;;;5052526;28;20243;-82
2021/06/27 07:01:48;;;;;;;46.90;34.73;;;20.40;99.90;;;;;;5049627;28;20683;-80
2021/06/27 07:04:16;;;;;;;43.43;32.80;;;20.40;99.90;;;;;;5051146;28;20251;-81
2021/06/27 07:06:44;;;;;;;47.23;34.07;;;20.60;99.90;;;;;;5033425;28;20291;-81
2021/06/27 07:09:11;;;;;;;42.90;34.57;;;20.90;99.90;;;;;;5047897;28;20249;-81
2021/06/27 07:11:38;;;;;;;46.37;33.83;;;21.00;99.90;;;;;;5052479;28;20239;-79
2021/06/27 07:14:05;;;;;;;43.70;33.00;;;21.00;99.90;;;;;;5052711;28;20233;-82
2021/06/27 07:16:32;;;;;;;41.23;31.47;;;21.10;99.90;;;;;;5048482;28;20753;-82
2021/06/27 07:18:59;;;;;;;41.30;32.00;;;21.10;99.90;;;;;;5052141;28;20666;-81
2021/06/27 07:21:29;;;;;;;38.37;30.77;;;21.20;99.90;;;;;;5052613;28;20295;-81
2021/06/27 07:23:56;;;;;;;39.53;30.40;;;20.90;99.90;;;;;;5052550;28;20277;-80
2021/06/27 07:26:24;;;;;;;40.80;32.87;;;21.00;99.90;;;;;;5043922;28;20266;-80
2021/06/27 07:28:51;;;;;;;40.07;32.33;;;20.90;99.90;;;;;;5051712;28;20200;-81
2021/06/27 07:31:18;;;;;;;42.03;31.77;;;20.80;99.90;;;;;;5052125;28;20224;-83
2021/06/27 07:33:45;;;;;;;38.33;31.90;;;20.70;99.90;;;;;;5052093;28;20228;-79
2021/06/27 07:36:12;;;;;;;37.37;30.07;;;20.90;99.90;;;;;;5052406;28;20236;-81
2021/06/27 07:38:41;;;;;;;37.40;31.60;;;21.10;99.90;;;;;;5049600;28;20204;-79
2021/06/27 07:41:08;;;;;;;39.53;31.37;;;21.10;99.90;;;;;;5052409;28;20247;-81
2021/06/27 07:43:35;;;;;;;39.93;30.93;;;21.10;99.90;;;;;;5051525;28;20231;-81
2021/06/27 07:46:02;;;;;;;38.17;30.37;;;21.30;99.90;;;;;;5052593;28;20286;-81
2021/06/27 07:48:29;;;;;;;39.78;30.67;;;21.30;99.90;;;;;;5052292;28;20235;-80
2021/06/27 07:50:56;;;;;;;38.45;31.02;;;21.30;99.90;;;;;;5055562;28;20220;-82
2021/06/27 07:53:23;;;;;;;38.92;29.65;;;21.40;99.90;;;;;;5055653;28;20208;-80
2021/06/27 07:55:51;;;;;;;36.97;29.47;;;21.40;99.90;;;;;;5055204;28;20224;-82
2021/06/27 07:58:19;;;;;;;34.53;28.77;;;21.30;99.90;;;;;;5055425;28;20314;-81
2021/06/27 08:00:46;;;;;;;37.13;28.75;;;21.40;99.90;;;;;;5054986;28;20246;-80
2021/06/27 08:03:13;;;;;;;33.70;27.70;;;21.30;99.90;;;;;;5062893;28;20300;-81
2021/06/27 08:05:39;;;;;;;33.33;27.00;;;21.70;99.90;;;;;;5055437;28;20315;-80
2021/06/27 08:08:07;;;;;;;35.20;27.83;;;21.90;99.90;;;;;;5055691;28;20283;-81
2021/06/27 08:10:34;;;;;;;31.33;26.77;;;22.00;99.90;;;;;;5055772;28;20196;-82
2021/06/27 08:13:03;;;;;;;32.28;26.48;;;22.10;99.90;;;;;;5054955;28;20287;-80
2021/06/27 08:15:30;;;;;;;31.23;26.13;;;22.40;99.90;;;;;;5055331;28;20243;-81
2021/06/27 08:17:57;;;;;;;35.08;27.25;;;22.10;99.90;;;;;;5055201;28;20302;-80
2021/06/27 08:20:25;;;;;;;33.38;26.05;;;22.10;99.90;;;;;;5055239;28;20213;-83
2021/06/27 08:22:53;;;;;;;39.05;25.80;;;22.10;99.90;;;;;;5055574;28;20295;-82
2021/06/27 08:25:20;;;;;;;34.40;26.00;;;22.30;99.90;;;;;;5055511;28;20295;-81
2021/06/27 08:27:48;;;;;;;32.67;26.02;;;22.40;99.90;;;;;;5055535;28;20257;-81
2021/06/27 08:30:18;;;;;;;32.53;26.10;;;22.30;99.90;;;;;;5055204;28;20287;-81
2021/06/27 08:32:47;;;;;;;34.42;25.88;;;22.60;99.90;;;;;;5042857;28;20291;-81
2021/06/27 08:35:15;;;;;;;28.85;25.10;;;23.00;99.90;;;;;;5047328;28;20230;-80
2021/06/27 08:37:44;;;;;;;34.20;26.98;;;23.40;99.90;;;;;;5055236;28;20306;-81
2021/06/27 08:40:12;;;;;;;32.92;24.77;;;23.00;99.90;;;;;;5054643;28;20726;-82
2021/06/27 08:42:39;;;;;;;27.27;24.02;;;23.10;99.90;;;;;;5053281;28;20235;-80
2021/06/27 08:45:08;;;;;;;30.00;25.30;;;23.00;99.90;;;;;;5053306;28;20220;-80
2021/06/27 08:47:38;;;;;;;28.65;24.50;;;22.90;99.90;;;;;;5054543;28;20211;-82
2021/06/27 08:50:06;;;;;;;27.90;24.60;;;23.20;99.90;;;;;;5040635;28;20284;-79
2021/06/27 08:52:33;;;;;;;28.35;24.58;;;23.10;99.90;;;;;;5033699;28;20288;-78
2021/06/27 08:55:00;;;;;;;31.17;24.67;;;23.30;99.90;;;;;;5035108;28;20571;-78
2021/06/27 08:57:28;;;;;;;28.67;23.80;;;23.50;99.90;;;;;;5045584;28;20304;-81
2021/06/27 08:59:55;;;;;;;27.75;22.92;;;23.60;99.90;;;;;;5061935;28;20290;-81
2021/06/27 09:02:22;;;;;;;27.67;22.58;;;23.70;99.90;;;;;;5041956;28;20275;-82
2021/06/27 09:04:50;;;;;;;27.92;23.42;;;23.70;99.90;;;;;;5054780;28;20300;-80
2021/06/27 09:07:32;;;;;;;27.48;22.27;;;23.70;99.90;;;;;;5054435;28;20706;-81
2021/06/27 09:10:04;;;;;;;27.67;22.13;;;23.70;99.90;;;;;;5054263;28;20283;-79
2021/06/27 09:12:48;;;;;;;29.48;21.70;;;23.60;99.90;;;;;;5054864;28;20200;-80
2021/06/27 09:15:33;;;;;;;28.52;21.48;;;23.70;99.90;;;;;;5054372;28;20239;-80
2021/06/27 09:18:01;;;;;;;29.42;21.90;;;23.80;99.90;;;;;;5054323;28;20307;-83
2021/06/27 09:20:31;;;;;;;25.95;21.70;;;23.90;99.90;;;;;;5053791;28;20200;-80
2021/06/27 09:22:59;;;;;;;30.80;21.08;;;24.10;99.90;;;;;;5053932;28;20200;-83
2021/06/27 09:25:28;;;;;;;24.90;21.63;;;24.60;99.90;;;;;;5054264;28;20223;-81
2021/06/27 09:28:01;;;;;;;27.25;20.85;;;24.70;99.90;;;;;;5048742;28;20228;-80
2021/06/27 09:30:29;;;;;;;22.90;19.77;;;25.00;99.90;;;;;;5048070;28;20195;-80
2021/06/27 09:32:59;;;;;;;27.95;20.88;;;25.60;99.90;;;;;;5053743;28;20223;-81
2021/06/27 09:35:52;;;;;;;23.63;19.02;;;25.50;99.90;;;;;;5054290;28;20288;-81
2021/06/27 09:38:21;;;;;;;23.92;20.33;;;25.70;99.90;;;;;;5054081;28;20319;-79
2021/06/27 09:40:49;;;;;;;24.55;19.23;;;25.60;99.90;;;;;;5053065;28;20220;-81
2021/06/27 09:43:17;;;;;;;26.13;17.90;;;26.10;99.90;;;;;;5053433;28;20254;-83
2021/06/27 09:45:49;;;;;;;22.90;18.02;;;26.60;99.90;;;;;;5053904;28;20227;-82
2021/06/27 09:48:16;;;;;;;21.95;17.20;;;27.00;99.90;;;;;;5053633;28;20550;-81
2021/06/27 09:50:43;;;;;;;19.27;17.27;;;27.90;99.90;;;;;;5051614;28;20246;-81
2021/06/27 09:53:38;;;;;;;20.98;16.63;;;28.20;99.90;;;;;;5045107;28;20663;-81
2021/06/27 09:56:07;;;;;;;17.83;15.93;;;28.30;99.90;;;;;;5054067;28;20526;-81
2021/06/27 09:58:34;;;;;;;19.10;17.10;;;28.40;99.90;;;;;;5053378;28;20309;-83
2021/06/27 10:01:01;;;;;;;18.15;16.33;;;28.00;99.90;;;;;;5039073;28;20208;-81
2021/06/27 10:03:29;;;;;;;20.65;16.02;;;27.60;99.90;;;;;;5033706;28;20235;-81
2021/06/27 10:06:07;;;;;;;16.80;15.10;;;27.20;99.90;;;;;;5033736;28;20232;-81
2021/06/27 10:08:34;;;;;;;17.02;15.30;;;27.10;99.90;;;;;;5042501;28;20249;-84
2021/06/27 10:11:15;;;;;;;17.40;15.15;;;27.10;99.90;;;;;;5053282;28;20231;-83
2021/06/27 10:13:43;;;;;;;17.65;15.88;;;26.70;99.90;;;;;;5053045;28;20282;-81
2021/06/27 10:16:22;;;;;;;19.38;15.82;;;26.60;99.90;;;;;;5037299;28;20679;-84
2021/06/27 10:18:49;;;;;;;16.42;14.65;;;26.20;99.90;;;;;;5033343;28;20316;-81
2021/06/27 10:21:16;;;;;;;16.90;15.10;;;26.50;99.90;;;;;;5033273;28;20323;-82
2021/06/27 10:23:44;;;;;;;18.55;15.60;;;26.70;99.90;;;;;;5033430;28;20201;-81
2021/06/27 10:26:14;;;;;;;16.83;14.95;;;27.00;99.90;;;;;;5044823;28;20275;-82
2021/06/27 10:28:42;;;;;;;17.00;14.93;;;27.70;99.90;;;;;;5053735;28;20595;-83
2021/06/27 10:31:11;;;;;;;16.73;15.02;;;28.10;99.90;;;;;;5053229;28;20253;-82
2021/06/27 10:33:39;;;;;;;17.02;15.23;;;28.60;99.90;;;;;;5034934;28;20647;-80
2021/06/27 10:36:07;;;;;;;16.80;15.00;;;28.80;99.90;;;;;;5034943;28;20284;-80
2021/06/27 10:38:36;;;;;;;16.90;15.20;;;28.90;99.90;;;;;;5053108;28;20322;-79
2021/06/27 10:41:03;;;;;;;17.02;15.25;;;28.70;99.90;;;;;;5053319;28;20642;-84
2021/06/27 10:44:03;;;;;;;19.17;14.95;;;28.10;99.90;;;;;;5052882;28;20640;-81
2021/06/27 10:46:41;;;;;;;17.17;14.23;;;27.80;99.90;;;;;;5047909;28;20227;-85
2021/06/27 10:49:09;;;;;;;15.73;14.13;;;28.00;99.90;;;;;;5033560;28;20666;-82
2021/06/27 10:52:00;;;;;;;14.90;13.40;;;28.60;99.90;;;;;;5033304;28;20215;-81
2021/06/27 10:54:27;;;;;;;13.50;12.02;;;29.00;99.90;;;;;;5032708;28;20566;-82
2021/06/27 10:56:59;;;;;;;13.88;12.45;;;29.30;99.90;;;;;;5053807;28;20282;-82
2021/06/27 10:59:58;;;;;;;15.07;13.57;;;29.50;99.90;;;;;;5076127;28;20662;-82
2021/06/27 11:02:41;;;;;;;14.43;12.43;;;29.40;99.90;;;;;;5073474;28;20210;-82
2021/06/27 11:05:42;;;;;;;15.15;13.40;;;29.10;99.90;;;;;;5053830;28;20227;-80
2021/06/27 11:08:13;;;;;;;14.98;11.50;;;28.80;99.90;;;;;;5030631;28;20231;-79
2021/06/27 11:10:40;;;;;;;13.88;12.48;;;28.80;99.90;;;;;;5052251;28;20196;-83
2021/06/27 11:13:14;;;;;;;14.10;11.82;;;29.70;99.90;;;;;;5051320;28;20200;-83
2021/06/27 11:16:23;;;;;;;12.35;11.18;;;30.20;99.90;;;;;;5065126;28;20714;-79
2021/06/27 11:18:52;;;;;;;12.30;11.20;;;30.50;99.90;;;;;;5031782;28;20284;-80
2021/06/27 11:21:22;;;;;;;14.65;11.52;;;29.90;99.90;;;;;;5051671;28;20724;-84
2021/06/27 11:23:54;;;;;;;12.77;11.48;;;29.70;99.90;;;;;;5052060;28;20192;-79
2021/06/27 11:26:54;;;;;;;12.55;11.15;;;29.50;99.90;;;;;;5055971;28;20196;-83
2021/06/27 11:29:41;;;;;;;10.85;9.85;;;28.90;99.90;;;;;;5050691;28;20204;-79
2021/06/27 11:32:45;;;;;;;10.85;9.85;;;28.80;99.90;;;;;;5056061;28;20200;-78
2021/06/27 11:35:34;;;;;;;12.00;9.40;;;29.30;99.90;;;;;;5038560;28;20719;-81
2021/06/27 11:38:01;;;;;;;10.25;9.25;;;29.40;99.90;;;;;;5039375;28;20241;-79
2021/06/27 11:40:49;;;;;;;10.40;9.40;;;29.60;99.90;;;;;;5046246;28;20224;-82
2021/06/27 11:43:16;;;;;;;13.75;9.77;;;29.50;99.90;;;;;;5052271;28;20202;-78
2021/06/27 11:45:49;;;;;;;11.55;9.82;;;29.00;99.90;;;;;;5051854;28;20702;-79
2021/06/27 11:48:17;;;;;;;10.60;9.55;;;29.10;99.90;;;;;;5054150;28;20362;-80
2021/06/27 11:50:53;;;;;;;10.73;9.07;;;30.10;99.90;;;;;;5053369;28;20204;-78
2021/06/27 11:53:26;;;;;;;12.07;8.93;;;31.70;99.90;;;;;;5053155;28;20246;-79
2021/06/27 11:56:12;;;;;;;11.07;9.43;;;32.40;99.90;;;;;;5047011;28;20204;-80
2021/06/27 11:58:39;;;;;;;10.63;8.88;;;33.00;99.90;;;;;;5053023;28;20302;-80
2021/06/27 12:01:09;;;;;;;12.15;10.23;;;31.60;99.90;;;;;;5052917;28;20196;-79
2021/06/27 12:03:49;;;;;;;10.52;9.52;;;30.30;99.90;;;;;;5050550;28;20219;-79
2021/06/27 12:06:17;;;;;;;11.20;10.07;;;29.80;99.90;;;;;;5041162;28;20657;-80
2021/06/27 12:08:46;;;;;;;13.15;9.73;;;30.00;99.90;;;;;;5049303;28;20215;-79
2021/06/27 12:11:13;;;;;;;14.23;10.55;;;29.70;99.90;;;;;;5054300;28;20250;-80
2021/06/27 12:13:40;;;;;;;11.70;10.50;;;29.20;99.90;;;;;;5053680;28;20637;-78
2021/06/27 12:16:07;;;;;;;12.45;10.27;;;28.60;99.90;;;;;;5053237;28;20232;-78
2021/06/27 12:18:36;;;;;;;11.60;10.30;;;28.10;99.90;;;;;;5053504;28;20226;-82
2021/06/27 12:21:07;;;;;;;11.55;10.35;;;28.20;99.90;;;;;;5054478;28;20263;-78
2021/06/27 12:23:37;;;;;;;12.60;9.27;;;28.10;99.90;;;;;;5053963;28;20271;-78
2021/06/27 12:26:06;;;;;;;11.77;10.27;;;28.00;99.90;;;;;;5048174;28;20203;-78
2021/06/27 12:28:36;;;;;;;10.85;9.48;;;28.10;99.90;;;;;;5043712;28;20246;-79
2021/06/27 12:31:12;;;;;;;10.85;9.85;;;27.60;99.90;;;;;;5053314;28;20208;-78
2021/06/27 12:33:41;;;;;;;11.15;10.10;;;27.60;99.90;;;;;;5049983;28;20206;-80
2021/06/27 12:36:10;;;;;;;12.00;10.50;;;27.80;99.90;;;;;;5053075;28;20655;-78